Sea Jet — WDD2601 — position and weather

sailwx.info

Track history (hours):
 
Tides and Currents Weather Stations Pressure Air Temp Water Temp Dewpoint Dewpoint Depression Visibility Wind Speed Wind Dir Waves Ship Positions

Sea Jet

Owner: Cross Sound Ferry Services, Inc., New London, CT. More information available from US FCC via Universal Licensing System and Coast Guard Vessel Documentation Center.

Last reported at 2017-Oct-18 13:47 UTC. Time now 2017-Oct-18 16:57 UTC.
Position N 41°13' W 072°12'.

Length 33 m; draft 1.8 m.

Type: High speed craft. MMSI: 367117430.

Date/timePositionNaut miles runAvg speedWind from/ knotsBaromVisibWave heightAir tempDewpointWater temp
2017-Oct-18 13:47N 41°13' W 072°12'4 3.5
2017-Oct-18 12:36N 41°15' W 072°08'224.9
2017-Oct-18 12:30N 41°14' W 072°10'2 3.3
2017-Oct-18 11:48N 41°12' W 072°12'4 0.4
2017-Oct-18 00:35N 41°15' W 072°08'227.5
2017-Oct-18 00:30N 41°14' W 072°10'4 6.8
2017-Oct-17 23:53N 41°11' W 072°13'7 5.3
2017-Oct-17 22:38N 41°16' W 072°08'4 5.3
2017-Oct-17 21:50N 41°13' W 072°12'2 0.3
2017-Oct-17 14:36N 41°14' W 072°09'1 1.1
2017-Oct-17 13:45N 41°13' W 072°11'1 0.7
2017-Oct-17 12:33N 41°14' W 072°10'223.9
2017-Oct-17 12:28N 41°12' W 072°12'2 3.4
2017-Oct-17 11:52N 41°11' W 072°13'7 0.6
2017-Oct-17 00:37N 41°16' W 072°08'325.5
2017-Oct-17 00:30N 41°13' W 072°10'2 3.1
2017-Oct-16 23:48N 41°12' W 072°12'3 2.2
2017-Oct-16 22:31N 41°14' W 072°09'124.7
2017-Oct-16 22:30N 41°13' W 072°09'3 3.9
2017-Oct-16 21:49N 41°12' W 072°13'3 0.4
2017-Oct-16 14:33N 41°14' W 072°10'2 3.3
2017-Oct-16 13:51N 41°12' W 072°12'5 3.9
2017-Oct-16 12:38N 41°15' W 072°07'325.2
2017-Oct-16 12:30N 41°13' W 072°10'2 3.0
2017-Oct-16 11:49N 41°12' W 072°12'3 0.2
2017-Oct-16 00:32N 41°14' W 072°10'2 3.6
2017-Oct-15 23:54N 41°13' W 072°13'5 3.8
2017-Oct-15 22:38N 41°15' W 072°07'3 4.2
2017-Oct-15 21:50N 41°13' W 072°11'3 0.4
2017-Oct-15 14:46N 41°16' W 072°08'3 3.3
2017-Oct-15 13:54N 41°13' W 072°11'1 0.5
2017-Oct-15 12:34N 41°14' W 072°10'1 1.2
2017-Oct-15 11:46N 41°13' W 072°11'3 0.3
2017-Oct-15 00:36N 41°15' W 072°07'328.0
2017-Oct-15 00:30N 41°13' W 072°10'1 1.5
2017-Oct-14 23:49N 41°13' W 072°11'2 1.2
2017-Oct-14 22:32N 41°14' W 072°09'2 2.1
2017-Oct-14 21:45N 41°13' W 072°11'1 0.3
2017-Oct-14 18:12N 41°13' W 072°10'723.2
2017-Oct-14 17:53N 41°07' W 072°16'8 2.3
2017-Oct-14 14:31N 41°14' W 072°10'026.6
2017-Oct-14 14:30N 41°13' W 072°10'2 3.2
2017-Oct-14 13:52N 41°12' W 072°12'5 4.1
2017-Oct-14 12:42N 41°15' W 072°08'5 5.2
2017-Oct-14 11:49N 41°12' W 072°12'2 0.2
2017-Oct-13 22:33N 41°14' W 072°10'1 1.2
2017-Oct-13 21:46N 41°14' W 072°11'1 0.2
2017-Oct-13 14:37N 41°14' W 072°10'425.0
2017-Oct-13 14:27N 41°11' W 072°13'2 2.8
2017-Oct-13 13:55N 41°12' W 072°12'5 4.1
2017-Oct-13 12:42N 41°15' W 072°08'522.0
2017-Oct-13 12:30N 41°12' W 072°12'0 0.2
2017-Oct-13 11:48N 41°12' W 072°12'1 0.1
2017-Oct-13 00:12N 41°12' W 072°13'5 4.2
2017-Oct-12 22:54N 41°15' W 072°07'5 7.1
2017-Oct-12 22:10N 41°12' W 072°13'3 0.5
2017-Oct-12 14:57N 41°14' W 072°09'0 0.1
2017-Oct-12 12:43N 41°14' W 072°08'2 1.9
2017-Oct-12 11:44N 41°13' W 072°11'1 0.1
2017-Oct-12 00:21N 41°14' W 072°10'1 2.1
2017-Oct-11 23:45N 41°13' W 072°11'1 1.0
2017-Oct-11 22:31N 41°14' W 072°09'028.1
2017-Oct-11 22:31N 41°14' W 072°10'3 3.9
2017-Oct-11 21:50N 41°12' W 072°12'6 1.7
2017-Oct-11 18:20N 41°16' W 072°07'1123.1
2017-Oct-11 17:50N 41°07' W 072°15'5 0.3
2017-Oct-10 23:53N 41°12' W 072°12'5 4.2
2017-Oct-10 22:36N 41°15' W 072°07'328.3
2017-Oct-10 22:30N 41°14' W 072°10'3 4.1
2017-Oct-10 21:50N 41°12' W 072°12'3 0.4
2017-Oct-10 14:32N 41°14' W 072°09'3 4.3
2017-Oct-10 13:51N 41°12' W 072°12'3 2.1
2017-Oct-10 12:32N 41°14' W 072°09'3 3.5
2017-Oct-10 11:49N 41°12' W 072°12'0 0.0
2017-Oct-10 00:37N 41°12' W 072°11'1 1.8
2017-Oct-10 00:07N 41°12' W 072°13'3 2.1
2017-Oct-09 22:46N 41°14' W 072°10'3 3.4
2017-Oct-09 21:55N 41°12' W 072°13'3 0.4
2017-Oct-09 14:33N 41°14' W 072°10'226.4
2017-Oct-09 14:28N 41°12' W 072°12'0 0.7
2017-Oct-09 13:49N 41°12' W 072°12'2 1.7
2017-Oct-09 12:32N 41°14' W 072°10'227.6
2017-Oct-09 12:27N 41°12' W 072°12'1 0.8
2017-Oct-09 11:48N 41°13' W 072°12'2 0.2
2017-Oct-09 00:31N 41°14' W 072°10'129.3
2017-Oct-09 00:30N 41°13' W 072°11'2 2.8
2017-Oct-08 23:52N 41°12' W 072°12'2 1.8
2017-Oct-08 22:31N 41°14' W 072°10'129.2
2017-Oct-08 22:30N 41°13' W 072°11'2 3.2
2017-Oct-08 21:52N 41°12' W 072°12'2 0.3
2017-Oct-08 14:37N 41°14' W 072°10'2 2.5
2017-Oct-08 13:49N 41°12' W 072°12'  
Track history (hours):
 
Tides and Currents Weather Stations Pressure Air Temp Water Temp Dewpoint Dewpoint Depression Visibility Wind Speed Wind Dir Waves Ship Positions

Sea Jet

Owner: Cross Sound Ferry Services, Inc., New London, CT. More information available from US FCC via Universal Licensing System and Coast Guard Vessel Documentation Center.

Last reported at 2017-Oct-18 13:47 UTC. Time now 2017-Oct-18 16:57 UTC.
Position N 41°13' W 072°12'.

Length 33 m; draft 1.8 m.

Type: High speed craft. MMSI: 367117430.

Date/timePositionNaut miles runAvg speedWind from/ knotsBaromVisibWave heightAir tempDewpointWater temp
2017-Oct-18 13:47N 41°13' W 072°12'4 3.5
2017-Oct-18 12:36N 41°15' W 072°08'224.9
2017-Oct-18 12:30N 41°14' W 072°10'2 3.3
2017-Oct-18 11:48N 41°12' W 072°12'4 0.4
2017-Oct-18 00:35N 41°15' W 072°08'227.5
2017-Oct-18 00:30N 41°14' W 072°10'4 6.8
2017-Oct-17 23:53N 41°11' W 072°13'7 5.3
2017-Oct-17 22:38N 41°16' W 072°08'4 5.3
2017-Oct-17 21:50N 41°13' W 072°12'2 0.3
2017-Oct-17 14:36N 41°14' W 072°09'1 1.1
2017-Oct-17 13:45N 41°13' W 072°11'1 0.7
2017-Oct-17 12:33N 41°14' W 072°10'223.9
2017-Oct-17 12:28N 41°12' W 072°12'2 3.4
2017-Oct-17 11:52N 41°11' W 072°13'7 0.6
2017-Oct-17 00:37N 41°16' W 072°08'325.5
2017-Oct-17 00:30N 41°13' W 072°10'2 3.1
2017-Oct-16 23:48N 41°12' W 072°12'3 2.2
2017-Oct-16 22:31N 41°14' W 072°09'124.7
2017-Oct-16 22:30N 41°13' W 072°09'3 3.9
2017-Oct-16 21:49N 41°12' W 072°13'3 0.4
2017-Oct-16 14:33N 41°14' W 072°10'2 3.3
2017-Oct-16 13:51N 41°12' W 072°12'5 3.9
2017-Oct-16 12:38N 41°15' W 072°07'325.2
2017-Oct-16 12:30N 41°13' W 072°10'2 3.0
2017-Oct-16 11:49N 41°12' W 072°12'3 0.2
2017-Oct-16 00:32N 41°14' W 072°10'2 3.6
2017-Oct-15 23:54N 41°13' W 072°13'5 3.8
2017-Oct-15 22:38N 41°15' W 072°07'3 4.2
2017-Oct-15 21:50N 41°13' W 072°11'3 0.4
2017-Oct-15 14:46N 41°16' W 072°08'3 3.3
2017-Oct-15 13:54N 41°13' W 072°11'1 0.5
2017-Oct-15 12:34N 41°14' W 072°10'1 1.2
2017-Oct-15 11:46N 41°13' W 072°11'3 0.3
2017-Oct-15 00:36N 41°15' W 072°07'328.0
2017-Oct-15 00:30N 41°13' W 072°10'1 1.5
2017-Oct-14 23:49N 41°13' W 072°11'2 1.2
2017-Oct-14 22:32N 41°14' W 072°09'2 2.1
2017-Oct-14 21:45N 41°13' W 072°11'1 0.3
2017-Oct-14 18:12N 41°13' W 072°10'723.2
2017-Oct-14 17:53N 41°07' W 072°16'8 2.3
2017-Oct-14 14:31N 41°14' W 072°10'026.6
2017-Oct-14 14:30N 41°13' W 072°10'2 3.2
2017-Oct-14 13:52N 41°12' W 072°12'5 4.1
2017-Oct-14 12:42N 41°15' W 072°08'5 5.2
2017-Oct-14 11:49N 41°12' W 072°12'2 0.2
2017-Oct-13 22:33N 41°14' W 072°10'1 1.2
2017-Oct-13 21:46N 41°14' W 072°11'1 0.2
2017-Oct-13 14:37N 41°14' W 072°10'425.0
2017-Oct-13 14:27N 41°11' W 072°13'2 2.8
2017-Oct-13 13:55N 41°12' W 072°12'5 4.1
2017-Oct-13 12:42N 41°15' W 072°08'522.0
2017-Oct-13 12:30N 41°12' W 072°12'0 0.2
2017-Oct-13 11:48N 41°12' W 072°12'1 0.1
2017-Oct-13 00:12N 41°12' W 072°13'5 4.2
2017-Oct-12 22:54N 41°15' W 072°07'5 7.1
2017-Oct-12 22:10N 41°12' W 072°13'3 0.5
2017-Oct-12 14:57N 41°14' W 072°09'0 0.1
2017-Oct-12 12:43N 41°14' W 072°08'2 1.9
2017-Oct-12 11:44N 41°13' W 072°11'1 0.1
2017-Oct-12 00:21N 41°14' W 072°10'1 2.1
2017-Oct-11 23:45N 41°13' W 072°11'1 1.0
2017-Oct-11 22:31N 41°14' W 072°09'028.1
2017-Oct-11 22:31N 41°14' W 072°10'3 3.9
2017-Oct-11 21:50N 41°12' W 072°12'6 1.7
2017-Oct-11 18:20N 41°16' W 072°07'1123.1
2017-Oct-11 17:50N 41°07' W 072°15'5 0.3
2017-Oct-10 23:53N 41°12' W 072°12'5 4.2
2017-Oct-10 22:36N 41°15' W 072°07'328.3
2017-Oct-10 22:30N 41°14' W 072°10'3 4.1
2017-Oct-10 21:50N 41°12' W 072°12'3 0.4
2017-Oct-10 14:32N 41°14' W 072°09'3 4.3
2017-Oct-10 13:51N 41°12' W 072°12'3 2.1
2017-Oct-10 12:32N 41°14' W 072°09'3 3.5
2017-Oct-10 11:49N 41°12' W 072°12'0 0.0
2017-Oct-10 00:37N 41°12' W 072°11'1 1.8
2017-Oct-10 00:07N 41°12' W 072°13'3 2.1
2017-Oct-09 22:46N 41°14' W 072°10'3 3.4
2017-Oct-09 21:55N 41°12' W 072°13'3 0.4
2017-Oct-09 14:33N 41°14' W 072°10'226.4
2017-Oct-09 14:28N 41°12' W 072°12'0 0.7
2017-Oct-09 13:49N 41°12' W 072°12'2 1.7
2017-Oct-09 12:32N 41°14' W 072°10'227.6
2017-Oct-09 12:27N 41°12' W 072°12'1 0.8
2017-Oct-09 11:48N 41°13' W 072°12'2 0.2
2017-Oct-09 00:31N 41°14' W 072°10'129.3
2017-Oct-09 00:30N 41°13' W 072°11'2 2.8
2017-Oct-08 23:52N 41°12' W 072°12'2 1.8
2017-Oct-08 22:31N 41°14' W 072°10'129.2
2017-Oct-08 22:30N 41°13' W 072°11'2 3.2
2017-Oct-08 21:52N 41°12' W 072°12'2 0.3
2017-Oct-08 14:37N 41°14' W 072°10'2 2.5
2017-Oct-08 13:49N 41°12' W 072°12'  

Dump ship's entire track history